Time,TemperatureF,DewpointF,PressureIn,WindDirection,WindDirectionDegrees,WindSpeedMPH,WindSpeedGustMPH,Humidity,HourlyPrecipIn,Conditions,Clouds,dailyrainin,SoftwareType,DateUTC
2013-08-09 00:01:00,52.4,50.7,29.90,NNW,334,0.0,0.0,94,0.00,,,0.00,WeatherCatV1.21B27,2013-08-09 07:01:00,
2013-08-09 00:02:00,52.4,50.7,29.90,NNW,334,0.0,0.0,94,0.00,,,0.00,WeatherCatV1.21B27,2013-08-09 07:02:00,
2013-08-09 00:07:00,52.4,50.7,29.90,NNW,329,2.0,2.0,94,0.00,,,0.00,WeatherCatV1.21B27,2013-08-09 07:07:00,
2013-08-09 00:12:00,52.3,50.6,29.90,NNW,332,0.0,1.0,94,0.00,,,0.00,WeatherCatV1.21B27,2013-08-09 07:12:00,
2013-08-09 00:17:00,52.2,50.5,29.90,NNW,332,0.0,0.0,94,0.00,,,0.00,WeatherCatV1.21B27,2013-08-09 07:17:00,
2013-08-09 00:22:00,52.1,50.4,29.90,NNW,332,0.0,0.0,94,0.00,,,0.00,WeatherCatV1.21B27,2013-08-09 07:22:00,
2013-08-09 00:27:00,52.1,50.4,29.90,NNW,332,0.0,0.0,94,0.00,,,0.00,WeatherCatV1.21B27,2013-08-09 07:27:00,
2013-08-09 00:32:00,51.9,49.9,29.90,NNW,332,0.0,0.0,93,0.00,,,0.00,WeatherCatV1.21B27,2013-08-09 07:32:00,
2013-08-09 00:37:00,51.8,49.8,29.90,NNW,332,0.0,0.0,93,0.00,,,0.00,WeatherCatV1.21B27,2013-08-09 07:37:00,
2013-08-09 00:42:00,51.8,49.8,29.90,NNW,332,0.0,0.0,93,0.00,,,0.00,WeatherCatV1.21B27,2013-08-09 07:42:00,
2013-08-09 00:47:00,51.7,49.7,29.90,NNW,332,0.0,0.0,93,0.00,,,0.00,WeatherCatV1.21B27,2013-08-09 07:47:00,
2013-08-09 00:52:00,51.7,49.7,29.90,NNW,332,0.0,0.0,93,0.00,,,0.00,WeatherCatV1.21B27,2013-08-09 07:52:00,
2013-08-09 00:57:00,51.6,49.9,29.90,NNW,332,0.0,0.0,94,0.00,,,0.00,WeatherCatV1.21B27,2013-08-09 07:57:00,
2013-08-09 01:02:00,51.5,49.8,29.89,NNW,332,0.0,1.0,94,0.00,,,0.00,WeatherCatV1.21B27,2013-08-09 08:02:00,
2013-08-09 01:07:00,51.5,49.8,29.89,NNW,332,0.0,0.0,94,0.00,,,0.00,WeatherCatV1.21B27,2013-08-09 08:07:00,
2013-08-09 01:12:00,51.5,49.8,29.89,NNW,332,0.0,0.0,94,0.00,,,0.00,WeatherCatV1.21B27,2013-08-09 08:12:00,
2013-08-09 01:17:00,51.5,49.8,29.88,NNW,332,0.0,0.0,94,0.00,,,0.00,WeatherCatV1.21B27,2013-08-09 08:17:00,
2013-08-09 01:22:00,51.6,49.9,29.88,NNW,332,0.0,0.0,94,0.00,,,0.00,WeatherCatV1.21B27,2013-08-09 08:22:00,
2013-08-09 01:27:00,51.5,49.8,29.88,NNW,332,0.0,0.0,94,0.00,,,0.00,WeatherCatV1.21B27,2013-08-09 08:27:00,
2013-08-09 01:32:00,51.6,49.9,29.89,NNW,332,0.0,0.0,94,0.00,,,0.00,WeatherCatV1.21B27,2013-08-09 08:32:00,
2013-08-09 01:37:00,51.6,49.9,29.89,NNW,332,0.0,0.0,94,0.00,,,0.00,WeatherCatV1.21B27,2013-08-09 08:37:00,
2013-08-09 01:42:00,51.5,49.8,29.89,NNW,332,0.0,0.0,94,0.00,,,0.00,WeatherCatV1.21B27,2013-08-09 08:42:00,
2013-08-09 01:47:00,51.5,49.8,29.89,NNW,332,0.0,0.0,94,0.00,,,0.00,WeatherCatV1.21B27,2013-08-09 08:47:00,
2013-08-09 01:52:00,51.5,49.8,29.89,NNW,332,0.0,0.0,94,0.00,,,0.00,WeatherCatV1.21B27,2013-08-09 08:52:00,
2013-08-09 01:57:00,51.4,49.7,29.89,NNW,332,0.0,0.0,94,0.00,,,0.00,WeatherCatV1.21B27,2013-08-09 08:57:00,
2013-08-09 02:02:00,51.3,49.6,29.88,NNW,332,0.0,0.0,94,0.00,,,0.00,WeatherCatV1.21B27,2013-08-09 09:02:00,
2013-08-09 02:07:00,51.1,49.4,29.88,NNW,332,0.0,0.0,94,0.00,,,0.00,WeatherCatV1.21B27,2013-08-09 09:07:00,
2013-08-09 02:12:00,51.0,49.3,29.88,NNW,332,0.0,0.0,94,0.00,,,0.00,WeatherCatV1.21B27,2013-08-09 09:12:00,
2013-08-09 02:17:00,50.9,49.5,29.88,NNW,332,0.0,0.0,95,0.00,,,0.00,WeatherCatV1.21B27,2013-08-09 09:17:00,
2013-08-09 02:22:00,50.9,49.5,29.88,NNW,332,0.0,0.0,95,0.00,,,0.00,WeatherCatV1.21B27,2013-08-09 09:22:00,
2013-08-09 02:27:00,50.9,49.5,29.88,NNW,332,0.0,0.0,95,0.00,,,0.00,WeatherCatV1.21B27,2013-08-09 09:27:00,
2013-08-09 02:32:00,50.8,49.4,29.88,NNW,332,0.0,0.0,95,0.00,,,0.00,WeatherCatV1.21B27,2013-08-09 09:32:00,
2013-08-09 02:37:00,50.8,49.4,29.88,NNW,332,0.0,0.0,95,0.00,,,0.00,WeatherCatV1.21B27,2013-08-09 09:37:00,
2013-08-09 02:42:00,50.9,49.5,29.88,NNW,332,0.0,0.0,95,0.00,,,0.00,WeatherCatV1.21B27,2013-08-09 09:42:00,
2013-08-09 02:47:00,50.9,49.8,29.88,NNW,332,0.0,0.0,96,0.00,,,0.00,WeatherCatV1.21B27,2013-08-09 09:47:00,
2013-08-09 02:52:00,50.8,49.4,29.88,NNW,332,0.0,0.0,95,0.00,,,0.00,WeatherCatV1.21B27,2013-08-09 09:52:00,
2013-08-09 02:57:00,50.8,49.4,29.88,NNW,332,0.0,0.0,95,0.00,,,0.00,WeatherCatV1.21B27,2013-08-09 09:57:00,
2013-08-09 03:02:00,50.7,49.3,29.88,NNW,332,0.0,0.0,95,0.00,,,0.00,WeatherCatV1.21B27,2013-08-09 10:02:00,
2013-08-09 03:07:00,50.6,49.2,29.88,NNW,332,0.0,0.0,95,0.00,,,0.00,WeatherCatV1.21B27,2013-08-09 10:07:00,
2013-08-09 03:12:00,50.4,49.0,29.88,NNW,332,0.0,0.0,95,0.00,,,0.00,WeatherCatV1.21B27,2013-08-09 10:12:00,
2013-08-09 03:17:00,50.2,48.8,29.88,NNW,332,0.0,0.0,95,0.00,,,0.00,WeatherCatV1.21B27,2013-08-09 10:17:00,
2013-08-09 03:22:00,50.2,48.8,29.88,NNW,332,0.0,0.0,95,0.00,,,0.00,WeatherCatV1.21B27,2013-08-09 10:22:00,
2013-08-09 03:27:00,50.1,48.7,29.88,NNW,332,0.0,0.0,95,0.00,,,0.00,WeatherCatV1.21B27,2013-08-09 10:27:00,
2013-08-09 03:32:00,50.1,48.7,29.87,NNW,332,0.0,0.0,95,0.00,,,0.00,WeatherCatV1.21B27,2013-08-09 10:32:00,
2013-08-09 03:37:00,50.1,48.7,29.87,NNW,332,0.0,0.0,95,0.00,,,0.00,WeatherCatV1.21B27,2013-08-09 10:37:00,
2013-08-09 03:42:00,50.1,49.0,29.87,NNW,332,0.0,0.0,96,0.00,,,0.00,WeatherCatV1.21B27,2013-08-09 10:42:00,
2013-08-09 03:47:00,50.0,48.9,29.87,NNW,332,0.0,0.0,96,0.00,,,0.00,WeatherCatV1.21B27,2013-08-09 10:47:00,
2013-08-09 03:52:00,49.9,48.5,29.87,NNW,332,0.0,0.0,95,0.00,,,0.00,WeatherCatV1.21B27,2013-08-09 10:52:00,
2013-08-09 03:57:00,49.8,48.7,29.87,NNW,332,0.0,0.0,96,0.00,,,0.00,WeatherCatV1.21B27,2013-08-09 10:57:00,
2013-08-09 04:02:00,49.8,48.7,29.86,NNW,332,0.0,0.0,96,0.00,,,0.00,WeatherCatV1.21B27,2013-08-09 11:02:00,
2013-08-09 04:07:00,49.6,48.2,29.86,NNW,332,0.0,0.0,95,0.00,,,0.00,WeatherCatV1.21B27,2013-08-09 11:07:00,
2013-08-09 04:12:00,49.3,47.9,29.86,NNW,332,0.0,0.0,95,0.00,,,0.00,WeatherCatV1.21B27,2013-08-09 11:12:00,
2013-08-09 04:17:00,49.0,47.3,29.85,NNW,332,0.0,0.0,94,0.00,,,0.00,WeatherCatV1.21B27,2013-08-09 11:17:00,
2013-08-09 04:22:00,48.9,47.5,29.85,NNW,332,0.0,1.0,95,0.00,,,0.00,WeatherCatV1.21B27,2013-08-09 11:22:00,
2013-08-09 04:27:00,49.1,48.0,29.85,NNW,332,0.0,0.0,96,0.00,,,0.00,WeatherCatV1.21B27,2013-08-09 11:27:00,
2013-08-09 04:32:00,49.4,48.3,29.85,NNW,332,0.0,0.0,96,0.00,,,0.00,WeatherCatV1.21B27,2013-08-09 11:32:00,
2013-08-09 04:37:00,49.6,48.5,29.85,NNW,332,0.0,0.0,96,0.00,,,0.00,WeatherCatV1.21B27,2013-08-09 11:37:00,
2013-08-09 04:42:00,49.6,48.2,29.85,NNW,332,0.0,0.0,95,0.00,,,0.00,WeatherCatV1.21B27,2013-08-09 11:42:00,
2013-08-09 04:47:00,49.6,48.2,29.85,NNW,332,0.0,0.0,95,0.00,,,0.00,WeatherCatV1.21B27,2013-08-09 11:47:00,
2013-08-09 04:52:00,49.7,48.6,29.85,NNW,332,0.0,0.0,96,0.00,,,0.00,WeatherCatV1.21B27,2013-08-09 11:52:00,
2013-08-09 04:57:00,49.7,48.3,29.85,NNW,332,0.0,0.0,95,0.00,,,0.00,WeatherCatV1.21B27,2013-08-09 11:57:00,
2013-08-09 05:02:00,49.8,48.4,29.85,NNW,332,0.0,0.0,95,0.00,,,0.00,WeatherCatV1.21B27,2013-08-09 12:02:00,
2013-08-09 05:07:00,49.7,48.3,29.85,NNW,332,0.0,0.0,95,0.00,,,0.00,WeatherCatV1.21B27,2013-08-09 12:07:00,
2013-08-09 05:12:00,49.6,47.9,29.85,NNW,332,0.0,0.0,94,0.00,,,0.00,WeatherCatV1.21B27,2013-08-09 12:12:00,
2013-08-09 05:17:00,49.6,47.9,29.85,NNW,332,0.0,0.0,94,0.00,,,0.00,WeatherCatV1.21B27,2013-08-09 12:17:00,
2013-08-09 05:22:00,49.5,47.8,29.85,NNW,332,0.0,0.0,94,0.00,,,0.00,WeatherCatV1.21B27,2013-08-09 12:22:00,
2013-08-09 05:27:00,49.4,47.8,29.85,NNW,332,0.0,0.0,94,0.00,,,0.00,WeatherCatV1.21B27,2013-08-09 12:27:00,
2013-08-09 05:32:00,49.4,48.0,29.85,NNW,332,0.0,0.0,95,0.00,,,0.00,WeatherCatV1.21B27,2013-08-09 12:32:00,
2013-08-09 05:37:00,49.3,47.9,29.85,NNW,332,0.0,0.0,95,0.00,,,0.00,WeatherCatV1.21B27,2013-08-09 12:37:00,
2013-08-09 05:42:00,49.2,47.8,29.85,NNW,332,0.0,0.0,95,0.00,,,0.00,WeatherCatV1.21B27,2013-08-09 12:42:00,
2013-08-09 05:47:00,49.2,47.8,29.86,NNW,332,0.0,0.0,95,0.00,,,0.00,WeatherCatV1.21B27,2013-08-09 12:47:00,
2013-08-09 05:52:00,49.0,47.6,29.86,NNW,333,0.0,0.0,95,0.00,,,0.00,WeatherCatV1.21B27,2013-08-09 12:52:00,
2013-08-09 05:57:00,48.9,47.5,29.86,NNW,333,0.0,0.0,95,0.00,,,0.00,WeatherCatV1.21B27,2013-08-09 12:57:00,
2013-08-09 06:02:00,48.8,47.4,29.86,NNW,333,0.0,0.0,95,0.00,,,0.00,WeatherCatV1.21B27,2013-08-09 13:02:00,
2013-08-09 06:07:00,48.8,47.4,29.86,NNW,333,0.0,0.0,95,0.00,,,0.00,WeatherCatV1.21B27,2013-08-09 13:07:00,
2013-08-09 06:12:00,48.8,47.7,29.86,NNW,333,0.0,0.0,96,0.00,,,0.00,WeatherCatV1.21B27,2013-08-09 13:12:00,
2013-08-09 06:17:00,48.8,47.7,29.86,NNW,333,0.0,0.0,96,0.00,,,0.00,WeatherCatV1.21B27,2013-08-09 13:17:00,
2013-08-09 06:22:00,48.8,47.7,29.86,NNW,333,0.0,0.0,96,0.00,,,0.00,WeatherCatV1.21B27,2013-08-09 13:22:00,
2013-08-09 06:27:00,48.8,47.7,29.86,NNW,333,0.0,0.0,96,0.00,,,0.00,WeatherCatV1.21B27,2013-08-09 13:27:00,
2013-08-09 06:32:00,48.9,47.8,29.87,NNW,333,0.0,0.0,96,0.00,,,0.00,WeatherCatV1.21B27,2013-08-09 13:32:00,
2013-08-09 06:37:00,48.9,47.8,29.87,NNW,333,0.0,0.0,96,0.00,,,0.00,WeatherCatV1.21B27,2013-08-09 13:37:00,
2013-08-09 06:42:00,48.9,47.8,29.87,NNW,333,0.0,0.0,96,0.00,,,0.00,WeatherCatV1.21B27,2013-08-09 13:42:00,
2013-08-09 06:47:00,48.9,47.8,29.87,NNW,333,0.0,0.0,96,0.00,,,0.00,WeatherCatV1.21B27,2013-08-09 13:47:00,
2013-08-09 06:52:00,49.0,47.9,29.87,NNW,333,0.0,0.0,96,0.00,,,0.00,WeatherCatV1.21B27,2013-08-09 13:52:00,
2013-08-09 06:57:00,49.0,47.9,29.87,NNW,333,0.0,0.0,96,0.00,,,0.00,WeatherCatV1.21B27,2013-08-09 13:57:00,
2013-08-09 07:02:00,49.0,47.9,29.87,NNW,333,0.0,1.0,96,0.00,,,0.00,WeatherCatV1.21B27,2013-08-09 14:02:00,
2013-08-09 07:07:00,49.0,47.9,29.87,NNW,333,0.0,0.0,96,0.00,,,0.00,WeatherCatV1.21B27,2013-08-09 14:07:00,
2013-08-09 07:12:00,49.2,48.1,29.87,NNW,333,0.0,0.0,96,0.00,,,0.00,WeatherCatV1.21B27,2013-08-09 14:12:00,
2013-08-09 07:17:00,49.3,48.2,29.87,NNW,333,0.0,0.0,96,0.00,,,0.00,WeatherCatV1.21B27,2013-08-09 14:17:00,
2013-08-09 07:22:00,49.3,48.2,29.87,NNW,333,0.0,0.0,96,0.00,,,0.00,WeatherCatV1.21B27,2013-08-09 14:22:00,
2013-08-09 07:27:00,49.3,48.2,29.87,NNW,333,0.0,0.0,96,0.00,,,0.00,WeatherCatV1.21B27,2013-08-09 14:27:00,
2013-08-09 07:32:00,49.4,48.3,29.87,NNW,333,0.0,0.0,96,0.00,,,0.00,WeatherCatV1.21B27,2013-08-09 14:32:00,
2013-08-09 07:37:00,49.5,48.7,29.87,NNW,333,0.0,0.0,97,0.00,,,0.00,WeatherCatV1.21B27,2013-08-09 14:37:00,
2013-08-09 07:42:00,49.6,48.8,29.87,NNW,333,0.0,0.0,97,0.00,,,0.00,WeatherCatV1.21B27,2013-08-09 14:42:00,
2013-08-09 07:47:00,49.6,48.8,29.87,NNW,333,0.0,0.0,97,0.00,,,0.00,WeatherCatV1.21B27,2013-08-09 14:47:00,
2013-08-09 07:52:00,49.6,48.8,29.87,NNW,333,0.0,0.0,97,0.00,,,0.00,WeatherCatV1.21B27,2013-08-09 14:52:00,
2013-08-09 07:57:00,49.7,48.9,29.87,NNW,333,0.0,0.0,97,0.00,,,0.00,WeatherCatV1.21B27,2013-08-09 14:57:00,
2013-08-09 08:02:00,49.9,49.1,29.88,NNW,333,0.0,0.0,97,0.00,,,0.00,WeatherCatV1.21B27,2013-08-09 15:02:00,
2013-08-09 08:07:00,50.0,49.2,29.88,NNW,333,0.0,0.0,97,0.00,,,0.00,WeatherCatV1.21B27,2013-08-09 15:07:00,
2013-08-09 08:12:00,50.2,49.4,29.88,NNW,333,0.0,0.0,97,0.00,,,0.00,WeatherCatV1.21B27,2013-08-09 15:12:00,
2013-08-09 08:17:00,50.4,49.6,29.89,NNW,333,0.0,1.0,97,0.00,,,0.00,WeatherCatV1.21B27,2013-08-09 15:17:00,
2013-08-09 08:22:00,50.7,49.9,29.89,NNW,338,0.0,1.0,97,0.00,,,0.00,WeatherCatV1.21B27,2013-08-09 15:22:00,
2013-08-09 08:27:00,50.9,50.1,29.89,NNW,341,0.0,0.0,97,0.00,,,0.00,WeatherCatV1.21B27,2013-08-09 15:27:00,
2013-08-09 08:32:00,51.0,49.9,29.89,ESE,108,0.0,2.0,96,0.00,,,0.00,WeatherCatV1.21B27,2013-08-09 15:32:00,
2013-08-09 08:37:00,51.3,49.9,29.89,SE,128,0.0,0.0,95,0.00,,,0.00,WeatherCatV1.21B27,2013-08-09 15:37:00,
2013-08-09 08:42:00,51.6,50.2,29.89,SE,128,0.0,0.0,95,0.00,,,0.00,WeatherCatV1.21B27,2013-08-09 15:42:00,
2013-08-09 08:47:00,51.9,50.2,29.89,SSE,153,0.0,1.0,94,0.00,,,0.00,WeatherCatV1.21B27,2013-08-09 15:47:00,
2013-08-09 08:52:00,52.2,50.2,29.89,SSE,152,0.0,1.0,93,0.00,,,0.00,WeatherCatV1.21B27,2013-08-09 15:52:00,
2013-08-09 08:57:00,52.6,50.6,29.89,SE,143,0.0,0.0,93,0.00,,,0.00,WeatherCatV1.21B27,2013-08-09 15:57:00,
2013-08-09 09:02:00,53.0,50.7,29.89,SE,144,0.0,1.0,92,0.00,,,0.00,WeatherCatV1.21B27,2013-08-09 16:02:00,
2013-08-09 09:07:00,53.3,51.0,29.89,SSE,147,1.0,1.0,92,0.00,,,0.00,WeatherCatV1.21B27,2013-08-09 16:07:00,
2013-08-09 09:12:00,53.6,51.0,29.89,SSE,147,0.0,0.0,91,0.00,,,0.00,WeatherCatV1.21B27,2013-08-09 16:12:00,
2013-08-09 09:17:00,53.9,51.3,29.89,SSE,150,1.0,2.0,91,0.00,,,0.00,WeatherCatV1.21B27,2013-08-09 16:17:00,
2013-08-09 09:22:00,54.2,51.3,29.89,SE,144,1.0,2.0,90,0.00,,,0.00,WeatherCatV1.21B27,2013-08-09 16:22:00,
2013-08-09 09:27:00,54.6,51.7,29.89,SSE,149,0.0,1.0,90,0.00,,,0.00,WeatherCatV1.21B27,2013-08-09 16:27:00,
2013-08-09 09:32:00,54.9,51.7,29.89,SSE,160,0.0,2.0,89,0.00,,,0.00,WeatherCatV1.21B27,2013-08-09 16:32:00,
2013-08-09 09:37:00,55.3,52.1,29.89,SSE,160,0.0,1.0,89,0.00,,,0.00,WeatherCatV1.21B27,2013-08-09 16:37:00,
2013-08-09 09:42:00,55.7,52.2,29.89,SSE,161,1.0,1.0,88,0.00,,,0.00,WeatherCatV1.21B27,2013-08-09 16:42:00,
2013-08-09 09:47:00,56.0,52.2,29.89,SSE,161,2.0,2.0,87,0.00,,,0.00,WeatherCatV1.21B27,2013-08-09 16:47:00,
2013-08-09 09:52:00,56.3,52.5,29.89,SSE,152,0.0,0.0,87,0.00,,,0.00,WeatherCatV1.21B27,2013-08-09 16:52:00,
2013-08-09 09:57:00,56.6,52.5,29.89,SSE,152,0.0,0.0,86,0.00,,,0.00,WeatherCatV1.21B27,2013-08-09 16:57:00,
2013-08-09 10:02:00,57.0,52.5,29.90,SE,138,0.0,2.0,85,0.00,,,0.00,WeatherCatV1.21B27,2013-08-09 17:02:00,
2013-08-09 10:07:00,57.4,52.9,29.90,SE,134,0.0,2.0,85,0.00,,,0.00,WeatherCatV1.21B27,2013-08-09 17:07:00,
2013-08-09 10:12:00,57.6,53.1,29.90,SE,133,1.0,1.0,85,0.00,,,0.00,WeatherCatV1.21B27,2013-08-09 17:12:00,
2013-08-09 10:17:00,57.9,53.1,29.90,SE,140,0.0,1.0,84,0.00,,,0.00,WeatherCatV1.21B27,2013-08-09 17:17:00,
2013-08-09 10:22:00,58.3,53.2,29.90,North,6,0.0,3.0,83,0.00,,,0.00,WeatherCatV1.21B27,2013-08-09 17:22:00,
2013-08-09 10:27:00,58.8,53.3,29.90,SE,141,2.0,3.0,82,0.00,,,0.00,WeatherCatV1.21B27,2013-08-09 17:27:00,
2013-08-09 10:32:00,59.3,53.5,29.90,SSE,149,0.0,1.0,81,0.00,,,0.00,WeatherCatV1.21B27,2013-08-09 17:32:00,
2013-08-09 10:37:00,59.8,54.0,29.90,SE,146,0.0,2.0,81,0.00,,,0.00,WeatherCatV1.21B27,2013-08-09 17:37:00,
2013-08-09 10:42:00,60.2,53.7,29.90,SSE,148,0.0,1.0,79,0.00,,,0.00,WeatherCatV1.21B27,2013-08-09 17:42:00,
2013-08-09 10:47:00,60.7,54.5,29.90,SSE,148,0.0,1.0,80,0.00,,,0.00,WeatherCatV1.21B27,2013-08-09 17:47:00,
2013-08-09 10:52:00,61.4,54.8,29.90,SSE,151,1.0,1.0,79,0.00,,,0.00,WeatherCatV1.21B27,2013-08-09 17:52:00,
2013-08-09 10:57:00,62.1,54.4,29.90,SE,146,2.0,3.0,76,0.00,,,0.00,WeatherCatV1.21B27,2013-08-09 17:57:00,
2013-08-09 11:02:00,62.5,54.5,29.90,SE,143,0.0,0.0,75,0.00,,,0.00,WeatherCatV1.21B27,2013-08-09 18:02:00,
2013-08-09 11:07:00,62.8,54.4,29.90,SE,146,0.0,2.0,74,0.00,,,0.00,WeatherCatV1.21B27,2013-08-09 18:07:00,
2013-08-09 11:12:00,63.2,54.8,29.90,SSE,148,1.0,3.0,74,0.00,,,0.00,WeatherCatV1.21B27,2013-08-09 18:12:00,
2013-08-09 11:17:00,63.8,54.6,29.90,SE,142,2.0,5.0,72,0.00,,,0.00,WeatherCatV1.21B27,2013-08-09 18:17:00,
2013-08-09 11:22:00,64.3,55.1,29.90,SE,145,0.0,2.0,72,0.00,,,0.00,WeatherCatV1.21B27,2013-08-09 18:22:00,
2013-08-09 11:27:00,64.9,54.9,29.90,SE,133,0.0,1.0,70,0.00,,,0.00,WeatherCatV1.21B27,2013-08-09 18:27:00,
2013-08-09 11:32:00,65.1,54.7,29.90,SE,138,1.0,3.0,69,0.00,,,0.00,WeatherCatV1.21B27,2013-08-09 18:32:00,
2013-08-09 11:37:00,65.2,54.8,29.90,SE,137,0.0,0.0,69,0.00,,,0.00,WeatherCatV1.21B27,2013-08-09 18:37:00,
2013-08-09 11:42:00,65.6,54.8,29.90,SE,140,1.0,3.0,68,0.00,,,0.00,WeatherCatV1.21B27,2013-08-09 18:42:00,
2013-08-09 11:47:00,66.1,55.2,29.90,SSE,150,1.0,3.0,68,0.00,,,0.00,WeatherCatV1.21B27,2013-08-09 18:47:00,
2013-08-09 11:52:00,66.8,55.5,29.90,SE,134,0.0,2.0,67,0.00,,,0.00,WeatherCatV1.21B27,2013-08-09 18:52:00,
2013-08-09 11:57:00,66.8,55.5,29.90,SE,142,0.0,1.0,67,0.00,,,0.00,WeatherCatV1.21B27,2013-08-09 18:57:00,
2013-08-09 12:02:00,67.5,55.7,29.90,SE,140,0.0,2.0,66,0.00,,,0.00,WeatherCatV1.21B27,2013-08-09 19:02:00,
2013-08-09 12:07:00,68.1,55.5,29.90,East,98,0.0,1.0,64,0.00,,,0.00,WeatherCatV1.21B27,2013-08-09 19:07:00,
2013-08-09 12:12:00,68.6,55.5,29.90,ESE,111,0.0,2.0,63,0.00,,,0.00,WeatherCatV1.21B27,2013-08-09 19:12:00,
2013-08-09 12:17:00,69.0,55.9,29.90,SE,146,1.0,3.0,63,0.00,,,0.00,WeatherCatV1.21B27,2013-08-09 19:17:00,
2013-08-09 12:22:00,69.1,55.5,29.90,SE,141,0.0,2.0,62,0.00,,,0.00,WeatherCatV1.21B27,2013-08-09 19:22:00,
2013-08-09 12:27:00,69.7,55.6,29.90,East,99,1.0,2.0,61,0.00,,,0.00,WeatherCatV1.21B27,2013-08-09 19:27:00,
2013-08-09 12:32:00,69.7,55.6,29.90,NNW,348,1.0,2.0,61,0.00,,,0.00,WeatherCatV1.21B27,2013-08-09 19:32:00,
2013-08-09 12:37:00,69.7,55.6,29.90,SE,126,0.0,1.0,61,0.00,,,0.00,WeatherCatV1.21B27,2013-08-09 19:37:00,
2013-08-09 12:42:00,69.9,56.3,29.90,SE,134,0.0,2.0,62,0.00,,,0.00,WeatherCatV1.21B27,2013-08-09 19:42:00,
2013-08-09 12:47:00,70.0,55.9,29.90,SE,144,2.0,3.0,61,0.00,,,0.00,WeatherCatV1.21B27,2013-08-09 19:47:00,
2013-08-09 12:52:00,70.4,56.3,29.90,SE,141,0.0,3.0,61,0.00,,,0.00,WeatherCatV1.21B27,2013-08-09 19:52:00,
2013-08-09 12:57:00,70.6,56.0,29.90,SE,133,1.0,4.0,60,0.00,,,0.00,WeatherCatV1.21B27,2013-08-09 19:57:00,
2013-08-09 13:02:00,70.8,56.7,29.90,SE,144,1.0,3.0,61,0.00,,,0.00,WeatherCatV1.21B27,2013-08-09 20:02:00,
2013-08-09 13:07:00,71.0,56.9,29.90,SSE,149,0.0,1.0,61,0.00,,,0.00,WeatherCatV1.21B27,2013-08-09 20:07:00,
2013-08-09 13:12:00,71.6,56.0,29.90,ESE,113,0.0,2.0,58,0.00,,,0.00,WeatherCatV1.21B27,2013-08-09 20:12:00,
2013-08-09 13:17:00,71.9,56.3,29.91,SE,132,1.0,2.0,58,0.00,,,0.00,WeatherCatV1.21B27,2013-08-09 20:17:00,
2013-08-09 13:22:00,71.5,55.9,29.91,SE,136,2.0,3.0,58,0.00,,,0.00,WeatherCatV1.21B27,2013-08-09 20:22:00,
2013-08-09 13:27:00,71.2,56.1,29.91,SE,129,0.0,3.0,59,0.00,,,0.00,WeatherCatV1.21B27,2013-08-09 20:27:00,
2013-08-09 13:32:00,71.3,56.2,29.91,SE,128,1.0,2.0,59,0.00,,,0.00,WeatherCatV1.21B27,2013-08-09 20:32:00,
2013-08-09 13:37:00,71.5,55.9,29.91,SSE,167,0.0,1.0,58,0.00,,,0.00,WeatherCatV1.21B27,2013-08-09 20:37:00,
2013-08-09 13:42:00,71.3,55.8,29.91,NNE,15,0.0,1.0,58,0.00,,,0.00,WeatherCatV1.21B27,2013-08-09 20:42:00,
2013-08-09 13:47:00,71.2,55.7,29.91,NE,35,0.0,2.0,58,0.00,,,0.00,WeatherCatV1.21B27,2013-08-09 20:47:00,
2013-08-09 13:52:00,71.2,56.1,29.91,SE,140,0.0,2.0,59,0.00,,,0.00,WeatherCatV1.21B27,2013-08-09 20:52:00,
2013-08-09 13:57:00,71.6,56.5,29.91,SE,141,1.0,2.0,59,0.00,,,0.00,WeatherCatV1.21B27,2013-08-09 20:57:00,
2013-08-09 14:02:00,71.9,56.8,29.91,SE,125,2.0,2.0,59,0.00,,,0.00,WeatherCatV1.21B27,2013-08-09 21:02:00,
2013-08-09 14:07:00,71.6,56.0,29.91,SE,141,1.0,4.0,58,0.00,,,0.00,WeatherCatV1.21B27,2013-08-09 21:07:00,
2013-08-09 14:12:00,71.3,56.2,29.91,SE,138,1.0,1.0,59,0.00,,,0.00,WeatherCatV1.21B27,2013-08-09 21:12:00,
2013-08-09 14:17:00,71.4,57.2,29.91,ESE,110,1.0,1.0,61,0.00,,,0.00,WeatherCatV1.21B27,2013-08-09 21:17:00,
2013-08-09 14:22:00,71.6,56.5,29.91,SE,124,0.0,1.0,59,0.00,,,0.00,WeatherCatV1.21B27,2013-08-09 21:22:00,
2013-08-09 14:27:00,71.3,56.2,29.91,ESE,123,1.0,3.0,59,0.00,,,0.00,WeatherCatV1.21B27,2013-08-09 21:27:00,
2013-08-09 14:32:00,70.8,56.2,29.91,SSE,147,3.0,3.0,60,0.00,,,0.00,WeatherCatV1.21B27,2013-08-09 21:32:00,
2013-08-09 14:37:00,70.5,56.4,29.91,ENE,69,0.0,1.0,61,0.00,,,0.00,WeatherCatV1.21B27,2013-08-09 21:37:00,
2013-08-09 14:42:00,70.4,56.3,29.91,SSE,149,1.0,3.0,61,0.00,,,0.00,WeatherCatV1.21B27,2013-08-09 21:42:00,
2013-08-09 14:47:00,70.3,56.7,29.91,SE,132,0.0,0.0,62,0.00,,,0.00,WeatherCatV1.21B27,2013-08-09 21:47:00,
2013-08-09 14:52:00,70.5,56.4,29.91,SE,127,0.0,2.0,61,0.00,,,0.00,WeatherCatV1.21B27,2013-08-09 21:52:00,
2013-08-09 14:54:00,70.5,56.8,29.91,SSE,147,0.0,3.0,62,0.00,,,0.00,WeatherCatV1.21B27,2013-08-09 21:54:00,
2013-08-09 14:59:00,70.4,56.8,29.91,ESE,121,0.0,2.0,62,0.00,,,0.00,WeatherCatV1.21B27,2013-08-09 21:59:00,
2013-08-09 15:04:00,70.1,56.5,29.91,ENE,77,0.0,1.0,62,0.00,,,0.00,WeatherCatV1.21B27,2013-08-09 22:04:00,
2013-08-09 15:09:00,69.9,56.3,29.91,NNW,338,2.0,2.0,62,0.00,,,0.00,WeatherCatV1.21B27,2013-08-09 22:09:00,
2013-08-09 15:14:00,69.5,56.3,29.91,SE,125,1.0,2.0,63,0.00,,,0.00,WeatherCatV1.21B27,2013-08-09 22:14:00,
2013-08-09 15:19:00,69.2,56.5,29.91,NE,46,0.0,2.0,64,0.00,,,0.00,WeatherCatV1.21B27,2013-08-09 22:19:00,
2013-08-09 15:24:00,68.9,56.6,29.91,East,96,1.0,2.0,65,0.00,,,0.00,WeatherCatV1.21B27,2013-08-09 22:24:00,
2013-08-09 15:29:00,68.9,56.6,29.91,SSE,147,0.0,2.0,65,0.00,,,0.00,WeatherCatV1.21B27,2013-08-09 22:29:00,
2013-08-09 15:34:00,68.6,56.3,29.91,SSE,151,0.0,3.0,65,0.00,,,0.00,WeatherCatV1.21B27,2013-08-09 22:34:00,
2013-08-09 15:39:00,68.4,56.6,29.91,SE,142,1.0,2.0,66,0.00,,,0.00,WeatherCatV1.21B27,2013-08-09 22:39:00,
2013-08-09 15:44:00,68.4,56.2,29.91,SE,140,2.0,2.0,65,0.00,,,0.00,WeatherCatV1.21B27,2013-08-09 22:44:00,
2013-08-09 15:49:00,68.3,56.5,29.91,SE,141,0.0,2.0,66,0.00,,,0.00,WeatherCatV1.21B27,2013-08-09 22:49:00,
2013-08-09 15:54:00,68.5,56.7,29.91,SE,133,0.0,2.0,66,0.00,,,0.00,WeatherCatV1.21B27,2013-08-09 22:54:00,
2013-08-09 15:59:00,68.6,56.8,29.91,SE,146,0.0,1.0,66,0.00,,,0.00,WeatherCatV1.21B27,2013-08-09 22:59:00,
2013-08-09 16:04:00,68.6,56.3,29.91,SE,138,0.0,0.0,65,0.00,,,0.00,WeatherCatV1.21B27,2013-08-09 23:04:00,
2013-08-09 16:09:00,68.6,56.3,29.91,SSE,152,1.0,3.0,65,0.00,,,0.00,WeatherCatV1.21B27,2013-08-09 23:09:00,
2013-08-09 16:14:00,68.4,56.6,29.90,SE,127,0.0,1.0,66,0.00,,,0.00,WeatherCatV1.21B27,2013-08-09 23:14:00,
2013-08-09 16:19:00,68.3,56.5,29.90,SE,127,0.0,1.0,66,0.00,,,0.00,WeatherCatV1.21B27,2013-08-09 23:19:00,
2013-08-09 16:24:00,68.0,56.6,29.90,SE,139,0.0,2.0,67,0.00,,,0.00,WeatherCatV1.21B27,2013-08-09 23:24:00,
2013-08-09 16:29:00,68.0,56.6,29.90,SSE,152,0.0,2.0,67,0.00,,,0.00,WeatherCatV1.21B27,2013-08-09 23:29:00,
2013-08-09 16:34:00,68.0,56.6,29.90,SE,133,0.0,2.0,67,0.00,,,0.00,WeatherCatV1.21B27,2013-08-09 23:34:00,
2013-08-09 16:39:00,67.9,56.5,29.90,SW,235,0.0,0.0,67,0.00,,,0.00,WeatherCatV1.21B27,2013-08-09 23:39:00,
2013-08-09 16:44:00,67.9,56.5,29.91,East,98,0.0,1.0,67,0.00,,,0.00,WeatherCatV1.21B27,2013-08-09 23:44:00,
2013-08-09 16:49:00,67.8,56.4,29.91,ENE,73,1.0,1.0,67,0.00,,,0.00,WeatherCatV1.21B27,2013-08-09 23:49:00,
2013-08-09 16:54:00,67.6,56.2,29.91,ESE,107,0.0,0.0,67,0.00,,,0.00,WeatherCatV1.21B27,2013-08-09 23:54:00,
2013-08-09 16:59:00,67.4,56.5,29.91,SE,140,0.0,0.0,68,0.00,,,0.00,WeatherCatV1.21B27,2013-08-09 23:59:00,
2013-08-09 17:04:00,67.2,56.3,29.91,SE,142,0.0,1.0,68,0.00,,,0.00,WeatherCatV1.21B27,2013-08-10 00:04:00,
2013-08-09 17:09:00,66.9,56.4,29.91,ESE,108,1.0,2.0,69,0.00,,,0.00,WeatherCatV1.21B27,2013-08-10 00:09:00,
2013-08-09 17:14:00,66.6,56.5,29.91,ESE,119,0.0,0.0,70,0.00,,,0.00,WeatherCatV1.21B27,2013-08-10 00:14:00,
2013-08-09 17:19:00,66.3,56.2,29.91,SE,135,1.0,2.0,70,0.00,,,0.00,WeatherCatV1.21B27,2013-08-10 00:19:00,
2013-08-09 17:24:00,66.1,56.0,29.91,SE,142,0.0,1.0,70,0.00,,,0.00,WeatherCatV1.21B27,2013-08-10 00:24:00,
2013-08-09 17:29:00,65.9,56.2,29.91,SE,146,0.0,1.0,71,0.00,,,0.00,WeatherCatV1.21B27,2013-08-10 00:29:00,
2013-08-09 17:34:00,65.7,56.4,29.91,SE,146,0.0,2.0,72,0.00,,,0.00,WeatherCatV1.21B27,2013-08-10 00:34:00,
2013-08-09 17:39:00,65.6,56.3,29.91,SSE,150,0.0,0.0,72,0.00,,,0.00,WeatherCatV1.21B27,2013-08-10 00:39:00,
2013-08-09 17:44:00,65.5,56.2,29.91,SSE,150,0.0,0.0,72,0.00,,,0.00,WeatherCatV1.21B27,2013-08-10 00:44:00,
2013-08-09 17:49:00,65.4,56.1,29.91,SE,144,0.0,1.0,72,0.00,,,0.00,WeatherCatV1.21B27,2013-08-10 00:49:00,
2013-08-09 17:54:00,65.1,55.8,29.91,SE,142,0.0,0.0,72,0.00,,,0.00,WeatherCatV1.21B27,2013-08-10 00:54:00,
2013-08-09 17:59:00,64.8,55.9,29.91,SE,142,0.0,1.0,73,0.00,,,0.00,WeatherCatV1.21B27,2013-08-10 00:59:00,
2013-08-09 18:04:00,64.5,56.0,29.91,SE,136,0.0,0.0,74,0.00,,,0.00,WeatherCatV1.21B27,2013-08-10 01:04:00,
2013-08-09 18:09:00,64.3,55.8,29.91,SE,136,0.0,1.0,74,0.00,,,0.00,WeatherCatV1.21B27,2013-08-10 01:09:00,
2013-08-09 18:14:00,64.3,55.8,29.90,SE,136,0.0,1.0,74,0.00,,,0.00,WeatherCatV1.21B27,2013-08-10 01:14:00,
2013-08-09 18:19:00,64.2,55.7,29.90,SE,136,0.0,0.0,74,0.00,,,0.00,WeatherCatV1.21B27,2013-08-10 01:19:00,
2013-08-09 18:24:00,64.1,55.6,29.90,SE,136,0.0,1.0,74,0.00,,,0.00,WeatherCatV1.21B27,2013-08-10 01:24:00,
2013-08-09 18:29:00,64.0,55.9,29.90,SE,136,0.0,0.0,75,0.00,,,0.00,WeatherCatV1.21B27,2013-08-10 01:29:00,
2013-08-09 18:34:00,63.9,55.8,29.90,SE,136,0.0,0.0,75,0.00,,,0.00,WeatherCatV1.21B27,2013-08-10 01:34:00,
2013-08-09 18:39:00,63.8,55.7,29.90,SE,136,0.0,0.0,75,0.00,,,0.00,WeatherCatV1.21B27,2013-08-10 01:39:00,
2013-08-09 18:44:00,63.6,55.5,29.90,SE,136,0.0,0.0,75,0.00,,,0.00,WeatherCatV1.21B27,2013-08-10 01:44:00,
2013-08-09 18:49:00,63.4,55.3,29.90,SE,136,0.0,0.0,75,0.00,,,0.00,WeatherCatV1.21B27,2013-08-10 01:49:00,
2013-08-09 18:54:00,63.3,55.2,29.90,SE,136,0.0,0.0,75,0.00,,,0.00,WeatherCatV1.21B27,2013-08-10 01:54:00,
2013-08-09 18:59:00,63.2,55.1,29.91,SE,136,0.0,0.0,75,0.00,,,0.00,WeatherCatV1.21B27,2013-08-10 01:59:00,
2013-08-09 19:04:00,63.1,55.0,29.91,SE,136,0.0,0.0,75,0.00,,,0.00,WeatherCatV1.21B27,2013-08-10 02:04:00,
2013-08-09 19:09:00,63.0,55.3,29.91,SE,136,0.0,0.0,76,0.00,,,0.00,WeatherCatV1.21B27,2013-08-10 02:09:00,
2013-08-09 19:14:00,62.9,55.6,29.91,SE,136,0.0,0.0,77,0.00,,,0.00,WeatherCatV1.21B27,2013-08-10 02:14:00,
2013-08-09 19:19:00,62.7,55.4,29.91,SE,136,0.0,0.0,77,0.00,,,0.00,WeatherCatV1.21B27,2013-08-10 02:19:00,
2013-08-09 19:24:00,62.6,54.9,29.91,SE,136,0.0,0.0,76,0.00,,,0.00,WeatherCatV1.21B27,2013-08-10 02:24:00,
2013-08-09 19:29:00,62.4,55.1,29.91,SE,136,0.0,0.0,77,0.00,,,0.00,WeatherCatV1.21B27,2013-08-10 02:29:00,
2013-08-09 19:34:00,62.2,54.9,29.91,SE,136,0.0,0.0,77,0.00,,,0.00,WeatherCatV1.21B27,2013-08-10 02:34:00,
2013-08-09 19:39:00,61.9,54.6,29.91,SE,136,0.0,0.0,77,0.00,,,0.00,WeatherCatV1.21B27,2013-08-10 02:39:00,
2013-08-09 19:44:00,61.6,54.7,29.92,SE,136,0.0,0.0,78,0.00,,,0.00,WeatherCatV1.21B27,2013-08-10 02:44:00,
2013-08-09 19:49:00,61.5,54.9,29.92,SE,136,0.0,0.0,79,0.00,,,0.00,WeatherCatV1.21B27,2013-08-10 02:49:00,
2013-08-09 19:54:00,61.5,54.9,29.92,SE,136,0.0,0.0,79,0.00,,,0.00,WeatherCatV1.21B27,2013-08-10 02:54:00,
2013-08-09 19:59:00,61.4,54.8,29.92,SE,136,0.0,0.0,79,0.00,,,0.00,WeatherCatV1.21B27,2013-08-10 02:59:00,
2013-08-09 20:04:00,61.4,54.8,29.92,SE,136,0.0,0.0,79,0.00,,,0.00,WeatherCatV1.21B27,2013-08-10 03:04:00,
2013-08-09 20:09:00,61.3,55.1,29.92,NNW,333,2.0,4.0,80,0.00,,,0.00,WeatherCatV1.21B27,2013-08-10 03:09:00,
2013-08-09 20:14:00,61.2,55.0,29.92,NNW,331,0.0,1.0,80,0.00,,,0.00,WeatherCatV1.21B27,2013-08-10 03:14:00,
2013-08-09 20:19:00,61.0,54.8,29.92,NNW,333,2.0,3.0,80,0.00,,,0.00,WeatherCatV1.21B27,2013-08-10 03:19:00,
2013-08-09 20:24:00,60.8,54.9,29.92,NNW,329,1.0,3.0,81,0.00,,,0.00,WeatherCatV1.21B27,2013-08-10 03:24:00,
2013-08-09 20:29:00,60.5,55.0,29.92,NNW,343,1.0,4.0,82,0.00,,,0.00,WeatherCatV1.21B27,2013-08-10 03:29:00,
2013-08-09 20:34:00,60.3,55.1,29.92,NNW,334,2.0,3.0,83,0.00,,,0.00,WeatherCatV1.21B27,2013-08-10 03:34:00,
2013-08-09 20:39:00,60.0,54.8,29.92,NNW,335,2.0,4.0,83,0.00,,,0.00,WeatherCatV1.21B27,2013-08-10 03:39:00,
2013-08-09 20:44:00,59.8,55.0,29.92,NNW,338,1.0,3.0,84,0.00,,,0.00,WeatherCatV1.21B27,2013-08-10 03:44:00,
2013-08-09 20:49:00,59.6,55.1,29.92,NNW,345,1.0,6.0,85,0.00,,,0.00,WeatherCatV1.21B27,2013-08-10 03:49:00,
2013-08-09 20:54:00,59.4,55.2,29.92,NNW,335,0.0,2.0,86,0.00,,,0.00,WeatherCatV1.21B27,2013-08-10 03:54:00,
2013-08-09 20:59:00,59.2,55.0,29.93,NNW,337,0.0,1.0,86,0.00,,,0.00,WeatherCatV1.21B27,2013-08-10 03:59:00,
2013-08-09 21:01:00,59.2,55.0,29.93,NNW,337,0.0,0.0,86,0.00,,,0.00,WeatherCatV1.21B27,2013-08-10 04:01:00,
2013-08-09 21:06:00,59.1,54.9,29.93,NNW,329,1.0,3.0,86,0.00,,,0.00,WeatherCatV1.21B27,2013-08-10 04:06:00,
2013-08-09 21:11:00,59.0,55.1,29.93,NNW,341,0.0,3.0,87,0.00,,,0.00,WeatherCatV1.21B27,2013-08-10 04:11:00,
2013-08-09 21:16:00,58.9,55.0,29.93,NNE,19,0.0,1.0,87,0.00,,,0.00,WeatherCatV1.21B27,2013-08-10 04:16:00,
2013-08-09 21:21:00,58.9,55.0,29.93,NNE,17,0.0,0.0,87,0.00,,,0.00,WeatherCatV1.21B27,2013-08-10 04:21:00,
2013-08-09 21:26:00,58.8,54.9,29.93,NNE,14,0.0,1.0,87,0.00,,,0.00,WeatherCatV1.21B27,2013-08-10 04:26:00,
2013-08-09 21:31:00,58.8,54.9,29.94,NNW,338,2.0,4.0,87,0.00,,,0.00,WeatherCatV1.21B27,2013-08-10 04:31:00,
2013-08-09 21:36:00,58.6,54.7,29.94,NNW,330,2.0,2.0,87,0.00,,,0.00,WeatherCatV1.21B27,2013-08-10 04:36:00,
2013-08-09 21:41:00,58.5,54.3,29.94,NNW,329,3.0,4.0,86,0.00,,,0.00,WeatherCatV1.21B27,2013-08-10 04:41:00,
2013-08-09 21:46:00,58.9,54.7,29.94,NNW,332,3.0,3.0,86,0.00,,,0.00,WeatherCatV1.21B27,2013-08-10 04:46:00,
2013-08-09 21:51:00,59.6,54.4,29.94,NNW,337,2.0,3.0,83,0.00,,,0.00,WeatherCatV1.21B27,2013-08-10 04:51:00,
2013-08-09 21:56:00,60.3,54.4,29.94,NNW,335,1.0,3.0,81,0.00,,,0.00,WeatherCatV1.21B27,2013-08-10 04:56:00,
2013-08-09 22:01:00,60.6,54.4,29.94,NNW,335,0.0,0.0,80,0.00,,,0.00,WeatherCatV1.21B27,2013-08-10 05:01:00,
2013-08-09 22:06:00,60.7,54.5,29.94,NNW,335,0.0,0.0,80,0.00,,,0.00,WeatherCatV1.21B27,2013-08-10 05:06:00,
2013-08-09 22:11:00,60.6,54.4,29.94,NNW,335,0.0,0.0,80,0.00,,,0.00,WeatherCatV1.21B27,2013-08-10 05:11:00,
2013-08-09 22:16:00,60.5,54.6,29.94,NNW,335,0.0,0.0,81,0.00,,,0.00,WeatherCatV1.21B27,2013-08-10 05:16:00,
2013-08-09 22:21:00,60.3,54.4,29.94,NNW,335,0.0,0.0,81,0.00,,,0.00,WeatherCatV1.21B27,2013-08-10 05:21:00,
2013-08-09 22:26:00,60.1,54.6,29.94,NNW,335,0.0,0.0,82,0.00,,,0.00,WeatherCatV1.21B27,2013-08-10 05:26:00,
2013-08-09 22:31:00,59.8,54.3,29.95,NNW,335,0.0,0.0,82,0.00,,,0.00,WeatherCatV1.21B27,2013-08-10 05:31:00,
2013-08-09 22:36:00,59.6,54.1,29.95,NNW,335,0.0,0.0,82,0.00,,,0.00,WeatherCatV1.21B27,2013-08-10 05:36:00,
2013-08-09 22:41:00,59.3,54.1,29.95,NNW,335,0.0,0.0,83,0.00,,,0.00,WeatherCatV1.21B27,2013-08-10 05:41:00,
2013-08-09 22:46:00,59.1,53.9,29.94,NNW,335,0.0,0.0,83,0.00,,,0.00,WeatherCatV1.21B27,2013-08-10 05:46:00,
2013-08-09 22:51:00,58.8,54.0,29.94,NNW,335,0.0,0.0,84,0.00,,,0.00,WeatherCatV1.21B27,2013-08-10 05:51:00,
2013-08-09 22:56:00,58.5,53.7,29.94,NNW,335,0.0,0.0,84,0.00,,,0.00,WeatherCatV1.21B27,2013-08-10 05:56:00,
2013-08-09 23:01:00,58.2,53.7,29.94,NNW,335,0.0,0.0,85,0.00,,,0.00,WeatherCatV1.21B27,2013-08-10 06:01:00,
2013-08-09 23:06:00,58.1,53.9,29.94,NNW,335,0.0,0.0,86,0.00,,,0.00,WeatherCatV1.21B27,2013-08-10 06:06:00,
2013-08-09 23:11:00,58.0,53.8,29.94,NNW,335,0.0,0.0,86,0.00,,,0.00,WeatherCatV1.21B27,2013-08-10 06:11:00,
2013-08-09 23:16:00,57.9,53.7,29.94,NNW,335,0.0,0.0,86,0.00,,,0.00,WeatherCatV1.21B27,2013-08-10 06:16:00,
2013-08-09 23:21:00,57.8,53.6,29.94,NNW,335,0.0,0.0,86,0.00,,,0.00,WeatherCatV1.21B27,2013-08-10 06:21:00,
2013-08-09 23:26:00,57.8,53.6,29.94,NNW,335,0.0,0.0,86,0.00,,,0.00,WeatherCatV1.21B27,2013-08-10 06:26:00,
2013-08-09 23:31:00,57.7,53.5,29.94,NNW,335,0.0,0.0,86,0.00,,,0.00,WeatherCatV1.21B27,2013-08-10 06:31:00,
2013-08-09 23:36:00,57.7,53.5,29.94,NNW,335,0.0,0.0,86,0.00,,,0.00,WeatherCatV1.21B27,2013-08-10 06:36:00,
2013-08-09 23:41:00,57.6,53.4,29.94,NNW,335,0.0,0.0,86,0.00,,,0.00,WeatherCatV1.21B27,2013-08-10 06:41:00,
2013-08-09 23:46:00,57.5,53.7,29.95,NNW,335,0.0,0.0,87,0.00,,,0.00,WeatherCatV1.21B27,2013-08-10 06:46:00,
2013-08-09 23:51:00,57.4,53.6,29.95,NNW,335,0.0,0.0,87,0.00,,,0.00,WeatherCatV1.21B27,2013-08-10 06:51:00,
2013-08-09 23:56:00,57.4,53.2,29.95,NNW,335,0.0,0.0,86,0.00,,,0.00,WeatherCatV1.21B27,2013-08-10 06:56:00,